createdAt,value
2018-07-31T00:00:41.549Z,1015.26
2018-07-31T00:01:41.544Z,1015.22
2018-07-31T00:02:41.256Z,1015.25
2018-07-31T00:03:41.448Z,1015.24
2018-07-31T00:04:41.571Z,1015.23
2018-07-31T00:05:41.618Z,1015.18
2018-07-31T00:06:41.679Z,1015.22
2018-07-31T00:07:41.537Z,1015.19
2018-07-31T00:08:41.575Z,1015.18
2018-07-31T00:09:41.506Z,1015.19
2018-07-31T00:10:41.450Z,1015.19
2018-07-31T00:11:41.293Z,1015.17
2018-07-31T00:12:41.468Z,1015.15
2018-07-31T00:13:41.654Z,1015.18
2018-07-31T00:14:41.505Z,1015.2
2018-07-31T00:15:41.470Z,1015.21
2018-07-31T00:16:41.756Z,1015.2
2018-07-31T00:17:41.473Z,1015.21
2018-07-31T00:18:41.512Z,1015.18
2018-07-31T00:19:41.325Z,1015.15
2018-07-31T00:20:41.293Z,1015.19
2018-07-31T00:21:41.487Z,1015.18
2018-07-31T00:22:41.311Z,1015.15
2018-07-31T00:23:41.523Z,1015.19
2018-07-31T00:24:41.646Z,1015.19
2018-07-31T00:25:41.494Z,1015.18
2018-07-31T00:26:41.518Z,1015.19
2018-07-31T00:27:41.422Z,1015.17
2018-07-31T00:28:41.393Z,1015.16
2018-07-31T00:29:41.333Z,1015.15
2018-07-31T00:30:41.572Z,1015.18
2018-07-31T00:31:41.723Z,1015.15
2018-07-31T00:32:41.405Z,1015.16
2018-07-31T00:33:41.308Z,1015.13
2018-07-31T00:34:41.685Z,1015.15
2018-07-31T00:35:41.515Z,1015.18
2018-07-31T00:36:41.313Z,1015.13
2018-07-31T00:37:41.581Z,1015.16
2018-07-31T00:38:41.285Z,1015.14
2018-07-31T00:39:41.447Z,1015.14
2018-07-31T00:40:41.455Z,1015.13
2018-07-31T00:41:41.444Z,1015.12
2018-07-31T00:42:41.465Z,1015.12
2018-07-31T00:43:41.525Z,1015.12
2018-07-31T00:44:41.697Z,1015.08
2018-07-31T00:45:41.458Z,1015.06
2018-07-31T00:46:41.351Z,1015.05
2018-07-31T00:47:41.283Z,1015.05
2018-07-31T00:48:41.439Z,1015.03
2018-07-31T00:49:41.782Z,1015.06
2018-07-31T00:50:41.431Z,1015.02
2018-07-31T00:51:41.434Z,1015.05
2018-07-31T00:52:41.527Z,1015.05
2018-07-31T00:53:41.749Z,1015.05
2018-07-31T00:54:41.635Z,1015.03
2018-07-31T00:55:41.399Z,1015
2018-07-31T00:56:41.316Z,1015.07
2018-07-31T00:57:41.538Z,1015.04
2018-07-31T00:58:41.757Z,1014.99
2018-07-31T00:59:41.571Z,1015
2018-07-31T01:00:41.307Z,1014.98
2018-07-31T01:01:41.363Z,1014.99
2018-07-31T01:02:41.595Z,1015.01
2018-07-31T01:03:41.463Z,1015.01
2018-07-31T01:04:41.463Z,1014.96
2018-07-31T01:05:41.280Z,1014.96
2018-07-31T01:06:41.404Z,1014.98
2018-07-31T01:07:41.464Z,1015
2018-07-31T01:08:41.351Z,1014.97
2018-07-31T01:09:41.421Z,1014.99
2018-07-31T01:10:41.516Z,1014.97
2018-07-31T01:11:41.435Z,1014.96
2018-07-31T01:12:41.511Z,1014.93
2018-07-31T01:13:41.458Z,1015
2018-07-31T01:14:41.402Z,1014.94
2018-07-31T01:15:41.422Z,1014.95
2018-07-31T01:16:41.485Z,1014.92
2018-07-31T01:17:41.450Z,1014.95
2018-07-31T01:18:41.518Z,1014.91
2018-07-31T01:19:41.497Z,1014.91
2018-07-31T01:20:41.610Z,1014.93
2018-07-31T01:21:41.461Z,1014.87
2018-07-31T01:22:41.474Z,1014.93
2018-07-31T01:23:41.272Z,1014.92
2018-07-31T01:24:41.586Z,1014.88
2018-07-31T01:25:41.510Z,1014.89
2018-07-31T01:26:41.504Z,1014.88
2018-07-31T01:27:41.444Z,1014.87
2018-07-31T01:28:41.526Z,1014.84
2018-07-31T01:29:41.345Z,1014.84
2018-07-31T01:30:41.561Z,1014.87
2018-07-31T01:31:41.566Z,1014.85
2018-07-31T01:32:41.365Z,1014.9
2018-07-31T01:33:41.320Z,1014.89
2018-07-31T01:34:41.491Z,1014.89
2018-07-31T01:35:41.349Z,1014.88
2018-07-31T01:36:41.392Z,1014.89
2018-07-31T01:37:41.344Z,1014.89
2018-07-31T01:38:41.387Z,1014.9
2018-07-31T01:39:41.380Z,1014.9
2018-07-31T01:40:41.534Z,1014.88
2018-07-31T01:41:41.296Z,1014.89
2018-07-31T01:42:41.355Z,1014.94
2018-07-31T01:43:41.487Z,1014.93
2018-07-31T01:44:41.473Z,1014.92
2018-07-31T01:45:41.662Z,1015.02
2018-07-31T01:46:41.451Z,1014.97
2018-07-31T01:47:41.449Z,1014.98
2018-07-31T01:48:41.771Z,1014.99
2018-07-31T01:49:41.590Z,1014.98
2018-07-31T01:50:41.267Z,1015
2018-07-31T01:51:41.301Z,1015.02
2018-07-31T01:52:41.339Z,1015.01
2018-07-31T01:53:41.343Z,1014.96
2018-07-31T01:54:41.287Z,1014.99
2018-07-31T01:55:41.363Z,1014.96
2018-07-31T01:56:41.460Z,1014.97
2018-07-31T01:57:41.479Z,1014.93
2018-07-31T01:58:41.514Z,1014.95
2018-07-31T01:59:41.678Z,1014.93
2018-07-31T02:00:41.724Z,1014.96
2018-07-31T02:01:41.466Z,1014.96
2018-07-31T02:02:41.589Z,1014.93
2018-07-31T02:03:41.428Z,1014.97
2018-07-31T02:04:41.541Z,1014.93
2018-07-31T02:05:41.475Z,1014.94
2018-07-31T02:06:41.510Z,1014.93
2018-07-31T02:07:41.394Z,1014.9
2018-07-31T02:08:41.309Z,1014.89
2018-07-31T02:09:41.457Z,1014.88
2018-07-31T02:10:41.387Z,1014.92
2018-07-31T02:11:41.410Z,1014.93
2018-07-31T02:12:41.602Z,1014.88
2018-07-31T02:13:41.573Z,1014.9
2018-07-31T02:14:41.445Z,1014.91
2018-07-31T02:15:41.611Z,1014.89
2018-07-31T02:16:41.479Z,1014.89
2018-07-31T02:17:41.405Z,1014.87
2018-07-31T02:18:41.399Z,1014.9
2018-07-31T02:19:41.426Z,1014.83
2018-07-31T02:20:41.507Z,1014.83
2018-07-31T02:21:41.494Z,1014.82
2018-07-31T02:22:41.518Z,1014.77
2018-07-31T02:23:41.350Z,1014.81
2018-07-31T02:24:41.523Z,1014.77
2018-07-31T02:25:41.351Z,1014.78
2018-07-31T02:26:41.292Z,1014.83
2018-07-31T02:27:41.483Z,1014.76
2018-07-31T02:28:41.663Z,1014.78
2018-07-31T02:29:41.527Z,1014.76
2018-07-31T02:30:41.447Z,1014.79
2018-07-31T02:31:41.375Z,1014.79
2018-07-31T02:32:41.377Z,1014.78
2018-07-31T02:33:41.342Z,1014.82
2018-07-31T02:34:41.387Z,1014.82
2018-07-31T02:35:41.243Z,1014.83
2018-07-31T02:36:41.549Z,1014.82
2018-07-31T02:37:41.518Z,1014.84
2018-07-31T02:38:41.386Z,1014.79
2018-07-31T02:39:41.662Z,1014.8
2018-07-31T02:40:41.527Z,1014.77
2018-07-31T02:41:41.340Z,1014.81
2018-07-31T02:42:41.777Z,1014.82
2018-07-31T02:43:41.343Z,1014.81
2018-07-31T02:44:41.365Z,1014.85
2018-07-31T02:45:41.490Z,1014.84
2018-07-31T02:46:41.475Z,1014.86
2018-07-31T02:47:41.776Z,1014.88
2018-07-31T02:48:41.308Z,1014.85
2018-07-31T02:49:41.321Z,1014.86
2018-07-31T02:50:41.439Z,1014.88
2018-07-31T02:51:41.339Z,1014.87
2018-07-31T02:52:41.854Z,1014.84
2018-07-31T02:53:41.309Z,1014.85
2018-07-31T02:54:41.378Z,1014.88
2018-07-31T02:55:41.521Z,1014.88
2018-07-31T02:56:41.640Z,1014.86
2018-07-31T02:57:41.759Z,1014.86
2018-07-31T02:58:41.358Z,1014.82
2018-07-31T02:59:41.446Z,1014.82
2018-07-31T03:00:41.708Z,1014.81
2018-07-31T03:01:41.743Z,1014.83
2018-07-31T03:02:41.324Z,1014.77
2018-07-31T03:03:41.694Z,1014.81
2018-07-31T03:04:41.585Z,1014.78
2018-07-31T03:05:41.461Z,1014.79
2018-07-31T03:06:41.376Z,1014.78
2018-07-31T03:07:41.460Z,1014.77
2018-07-31T03:08:41.377Z,1014.78
2018-07-31T03:09:41.622Z,1014.8
2018-07-31T03:10:41.799Z,1014.77
2018-07-31T03:11:41.273Z,1014.79
2018-07-31T03:12:41.382Z,1014.81
2018-07-31T03:13:41.348Z,1014.86
2018-07-31T03:14:41.408Z,1014.89
2018-07-31T03:15:41.477Z,1014.9
2018-07-31T03:16:41.544Z,1014.91
2018-07-31T03:17:41.674Z,1014.95
2018-07-31T03:18:41.341Z,1014.99
2018-07-31T03:19:41.453Z,1015.04
2018-07-31T03:20:41.384Z,1015.04
2018-07-31T03:21:41.456Z,1015.03
2018-07-31T03:22:41.314Z,1015.05
2018-07-31T03:23:41.485Z,1015.06
2018-07-31T03:24:41.475Z,1015.03
2018-07-31T03:25:41.518Z,1015.05
2018-07-31T03:26:41.291Z,1015.06
2018-07-31T03:27:41.289Z,1015.09
2018-07-31T03:28:41.459Z,1015.05
2018-07-31T03:29:41.180Z,1015.05
2018-07-31T03:30:41.530Z,1015.04
2018-07-31T03:31:41.470Z,1015.02
2018-07-31T03:32:41.471Z,1015.03
2018-07-31T03:33:41.495Z,1015.03
2018-07-31T03:34:41.448Z,1015.01
2018-07-31T03:35:41.463Z,1015.04
2018-07-31T03:36:41.371Z,1014.98
2018-07-31T03:37:41.513Z,1015.01
2018-07-31T03:38:41.276Z,1014.98
2018-07-31T03:39:41.362Z,1014.97
2018-07-31T03:40:41.363Z,1015.02
2018-07-31T03:41:41.298Z,1015.01
2018-07-31T03:42:41.399Z,1015.02
2018-07-31T03:43:41.407Z,1014.98
2018-07-31T03:44:41.301Z,1014.96
2018-07-31T03:45:41.346Z,1015.05
2018-07-31T03:46:41.346Z,1015.01
2018-07-31T03:47:41.234Z,1015.03
2018-07-31T03:48:41.469Z,1015
2018-07-31T03:49:41.465Z,1015.05
2018-07-31T03:50:41.519Z,1015.01
2018-07-31T03:51:41.589Z,1014.96
2018-07-31T03:52:41.410Z,1015.02
2018-07-31T03:53:41.299Z,1015.03
2018-07-31T03:54:41.327Z,1015.05
2018-07-31T03:55:41.368Z,1015.11
2018-07-31T03:56:41.508Z,1015.11
2018-07-31T03:57:41.801Z,1015.14
2018-07-31T03:58:41.252Z,1015.18
2018-07-31T03:59:41.424Z,1015.17
2018-07-31T04:00:41.436Z,1015.2
2018-07-31T04:01:41.495Z,1015.19
2018-07-31T04:02:41.448Z,1015.22
2018-07-31T04:03:41.448Z,1015.19
2018-07-31T04:04:41.654Z,1015.2
2018-07-31T04:05:41.354Z,1015.19
2018-07-31T04:06:41.550Z,1015.2
2018-07-31T04:07:41.300Z,1015.21
2018-07-31T04:08:41.258Z,1015.16
2018-07-31T04:09:41.433Z,1015.17
2018-07-31T04:10:41.390Z,1015.19
2018-07-31T04:11:41.327Z,1015.21
2018-07-31T04:12:41.489Z,1015.22
2018-07-31T04:13:41.500Z,1015.27
2018-07-31T04:14:41.398Z,1015.26
2018-07-31T04:15:41.408Z,1015.26
2018-07-31T04:16:41.480Z,1015.22
2018-07-31T04:17:41.370Z,1015.28
2018-07-31T04:18:41.387Z,1015.26
2018-07-31T04:19:41.676Z,1015.23
2018-07-31T04:20:41.281Z,1015.23
2018-07-31T04:21:41.496Z,1015.21
2018-07-31T04:22:41.479Z,1015.22
2018-07-31T04:23:41.507Z,1015.2
2018-07-31T04:24:41.577Z,1015.21
2018-07-31T04:25:41.605Z,1015.25
2018-07-31T04:26:41.432Z,1015.27
2018-07-31T04:27:41.472Z,1015.27
2018-07-31T04:28:41.428Z,1015.29
2018-07-31T04:29:41.250Z,1015.28
2018-07-31T04:30:41.435Z,1015.29
2018-07-31T04:31:41.434Z,1015.31
2018-07-31T04:32:41.255Z,1015.3
2018-07-31T04:33:41.361Z,1015.3
2018-07-31T04:34:41.491Z,1015.36
2018-07-31T04:35:41.439Z,1015.33
2018-07-31T04:36:41.446Z,1015.32
2018-07-31T04:37:41.524Z,1015.35
2018-07-31T04:38:41.280Z,1015.33
2018-07-31T04:39:41.437Z,1015.35
2018-07-31T04:40:41.398Z,1015.35
2018-07-31T04:41:41.413Z,1015.34
2018-07-31T04:42:41.514Z,1015.33
2018-07-31T04:43:41.514Z,1015.34
2018-07-31T04:44:41.385Z,1015.39
2018-07-31T04:45:41.475Z,1015.37
2018-07-31T04:46:41.483Z,1015.38
2018-07-31T04:47:41.254Z,1015.37
2018-07-31T04:48:41.303Z,1015.4
2018-07-31T04:49:41.443Z,1015.37
2018-07-31T04:50:41.306Z,1015.38
2018-07-31T04:51:41.250Z,1015.33
2018-07-31T04:52:41.260Z,1015.34
2018-07-31T04:53:41.423Z,1015.34
2018-07-31T04:54:41.317Z,1015.32
2018-07-31T04:55:41.416Z,1015.32
2018-07-31T04:56:41.347Z,1015.32
2018-07-31T04:57:41.408Z,1015.32
2018-07-31T04:58:41.425Z,1015.32
2018-07-31T04:59:41.433Z,1015.34
2018-07-31T05:00:41.679Z,1015.35
2018-07-31T05:01:41.510Z,1015.3
2018-07-31T05:02:41.453Z,1015.3
2018-07-31T05:03:41.543Z,1015.3
2018-07-31T05:04:41.417Z,1015.3
2018-07-31T05:05:41.233Z,1015.28
2018-07-31T05:06:41.407Z,1015.29
2018-07-31T05:07:41.720Z,1015.29
2018-07-31T05:08:41.364Z,1015.28
2018-07-31T05:09:41.513Z,1015.26
2018-07-31T05:10:41.509Z,1015.28
2018-07-31T05:11:41.251Z,1015.32
2018-07-31T05:12:41.349Z,1015.31
2018-07-31T05:13:41.402Z,1015.3
2018-07-31T05:14:41.161Z,1015.36
2018-07-31T05:15:41.342Z,1015.34
2018-07-31T05:16:41.456Z,1015.35
2018-07-31T05:17:41.759Z,1015.36
2018-07-31T05:18:41.305Z,1015.34
2018-07-31T05:19:41.472Z,1015.36
2018-07-31T05:20:41.443Z,1015.38
2018-07-31T05:21:41.406Z,1015.38
2018-07-31T05:22:41.495Z,1015.39
2018-07-31T05:23:41.498Z,1015.39
2018-07-31T05:24:41.373Z,1015.43
2018-07-31T05:25:41.487Z,1015.42
2018-07-31T05:26:41.339Z,1015.44
2018-07-31T05:27:41.637Z,1015.43
2018-07-31T05:28:41.423Z,1015.45
2018-07-31T05:29:41.416Z,1015.49
2018-07-31T05:30:41.337Z,1015.48
2018-07-31T05:31:41.496Z,1015.53
2018-07-31T05:32:41.576Z,1015.54
2018-07-31T05:33:41.419Z,1015.57
2018-07-31T05:34:41.362Z,1015.55
2018-07-31T05:35:41.411Z,1015.57
2018-07-31T05:36:41.648Z,1015.54
2018-07-31T05:37:41.458Z,1015.53
2018-07-31T05:38:41.387Z,1015.55
2018-07-31T05:39:41.437Z,1015.53
2018-07-31T05:40:41.338Z,1015.57
2018-07-31T05:41:41.225Z,1015.61
2018-07-31T05:42:41.783Z,1015.58
2018-07-31T05:43:41.503Z,1015.64
2018-07-31T05:44:42.891Z,1015.65
2018-07-31T05:45:41.476Z,1015.67
2018-07-31T05:46:41.288Z,1015.72
2018-07-31T05:47:41.431Z,1015.72
2018-07-31T05:48:41.260Z,1015.72
2018-07-31T05:49:41.410Z,1015.71
2018-07-31T05:50:41.422Z,1015.74
2018-07-31T05:51:41.453Z,1015.75
2018-07-31T05:52:41.530Z,1015.73
2018-07-31T05:53:41.422Z,1015.75
2018-07-31T05:54:41.339Z,1015.74
2018-07-31T05:55:41.450Z,1015.77
2018-07-31T05:56:41.560Z,1015.75
2018-07-31T05:57:41.577Z,1015.78
2018-07-31T05:58:41.680Z,1015.74
2018-07-31T05:59:41.268Z,1015.76
2018-07-31T06:00:41.333Z,1015.73
2018-07-31T06:01:41.363Z,1015.73
2018-07-31T06:02:41.405Z,1015.76
2018-07-31T06:03:41.529Z,1015.74
2018-07-31T06:04:41.510Z,1015.75
2018-07-31T06:05:41.344Z,1015.72
2018-07-31T06:06:41.437Z,1015.72
2018-07-31T06:07:41.384Z,1015.73
2018-07-31T06:08:41.279Z,1015.74
2018-07-31T06:09:41.600Z,1015.77
2018-07-31T06:10:41.529Z,1015.77
2018-07-31T06:11:41.255Z,1015.79
2018-07-31T06:12:41.314Z,1015.81
2018-07-31T06:13:41.265Z,1015.77
2018-07-31T06:14:41.434Z,1015.82
2018-07-31T06:15:41.294Z,1015.85
2018-07-31T06:16:41.374Z,1015.88
2018-07-31T06:17:41.224Z,1015.82
2018-07-31T06:18:41.452Z,1015.84
2018-07-31T06:19:41.355Z,1015.87
2018-07-31T06:20:41.430Z,1015.82
2018-07-31T06:21:41.416Z,1015.85
2018-07-31T06:22:41.389Z,1015.82
2018-07-31T06:23:41.208Z,1015.87
2018-07-31T06:24:41.248Z,1015.87
2018-07-31T06:25:41.913Z,1015.88
2018-07-31T06:26:41.917Z,1015.88
2018-07-31T06:27:41.253Z,1015.91
2018-07-31T06:28:41.486Z,1015.9
2018-07-31T06:29:41.381Z,1015.97
2018-07-31T06:30:41.396Z,1015.94
2018-07-31T06:31:41.217Z,1015.92
2018-07-31T06:32:41.302Z,1015.95
2018-07-31T06:33:41.423Z,1015.93
2018-07-31T06:34:41.783Z,1015.97
2018-07-31T06:35:41.390Z,1015.96
2018-07-31T06:36:41.234Z,1015.94
2018-07-31T06:37:41.564Z,1015.96
2018-07-31T06:38:41.322Z,1015.98
2018-07-31T06:39:41.239Z,1015.96
2018-07-31T06:40:41.273Z,1015.97
2018-07-31T06:41:41.402Z,1015.95
2018-07-31T06:42:41.461Z,1015.96
2018-07-31T06:43:41.479Z,1015.95
2018-07-31T06:44:41.279Z,1015.95
2018-07-31T06:45:41.263Z,1015.96
2018-07-31T06:46:41.481Z,1015.93
2018-07-31T06:47:41.397Z,1015.91
2018-07-31T06:48:41.337Z,1015.92
2018-07-31T06:49:41.538Z,1015.89
2018-07-31T06:50:41.354Z,1015.9
2018-07-31T06:51:41.424Z,1015.92
2018-07-31T06:52:41.387Z,1015.96
2018-07-31T06:53:41.364Z,1015.93
2018-07-31T06:54:41.314Z,1015.96
2018-07-31T06:55:41.807Z,1015.98
2018-07-31T06:56:41.549Z,1015.98
2018-07-31T06:57:41.325Z,1016
2018-07-31T06:58:41.296Z,1016.01
2018-07-31T06:59:42.396Z,1016.01
2018-07-31T07:00:41.488Z,1016.01
2018-07-31T07:01:41.284Z,1016.05
2018-07-31T07:02:41.222Z,1015.99
2018-07-31T07:03:41.232Z,1016.04
2018-07-31T07:04:41.427Z,1016.03
2018-07-31T07:05:41.520Z,1016.01
2018-07-31T07:06:41.280Z,1016.07
2018-07-31T07:07:41.357Z,1016.05
2018-07-31T07:08:41.412Z,1016.07
2018-07-31T07:09:41.349Z,1016.03
2018-07-31T07:10:41.478Z,1016.05
2018-07-31T07:11:41.494Z,1016.08
2018-07-31T07:12:41.584Z,1016.09
2018-07-31T07:13:41.548Z,1016.1
2018-07-31T07:14:41.474Z,1016.13
2018-07-31T07:15:41.473Z,1016.13
2018-07-31T07:16:41.669Z,1016.09
2018-07-31T07:17:41.259Z,1016.13
2018-07-31T07:18:41.442Z,1016.2
2018-07-31T07:19:41.314Z,1016.16
2018-07-31T07:20:41.167Z,1016.14
2018-07-31T07:21:41.416Z,1016.17
2018-07-31T07:22:41.573Z,1016.2
2018-07-31T07:23:41.398Z,1016.17
2018-07-31T07:24:41.410Z,1016.18
2018-07-31T07:25:41.356Z,1016.2
2018-07-31T07:26:41.365Z,1016.22
2018-07-31T07:27:41.277Z,1016.22
2018-07-31T07:28:41.380Z,1016.21
2018-07-31T07:29:41.191Z,1016.22
2018-07-31T07:30:41.368Z,1016.2
2018-07-31T07:31:41.609Z,1016.22
2018-07-31T07:32:41.331Z,1016.21
2018-07-31T07:33:41.721Z,1016.18
2018-07-31T07:34:41.094Z,1016.16
2018-07-31T07:35:41.222Z,1016.15
2018-07-31T07:36:41.182Z,1016.17
2018-07-31T07:37:41.490Z,1016.18
2018-07-31T07:38:41.196Z,1016.19
2018-07-31T07:39:41.362Z,1016.2
2018-07-31T07:40:41.239Z,1016.16
2018-07-31T07:41:41.279Z,1016.18
2018-07-31T07:42:41.301Z,1016.17
2018-07-31T07:43:41.494Z,1016.17
2018-07-31T07:44:41.540Z,1016.18
2018-07-31T07:45:41.465Z,1016.19
2018-07-31T07:46:41.581Z,1016.21
2018-07-31T07:47:41.375Z,1016.21
2018-07-31T07:48:41.424Z,1016.23
2018-07-31T07:49:41.259Z,1016.22
2018-07-31T07:50:41.460Z,1016.21
2018-07-31T07:51:41.287Z,1016.21
2018-07-31T07:52:41.376Z,1016.23
2018-07-31T07:53:41.473Z,1016.23
2018-07-31T07:54:41.305Z,1016.26
2018-07-31T07:55:41.464Z,1016.2
2018-07-31T07:56:41.322Z,1016.25
2018-07-31T07:57:41.509Z,1016.27
2018-07-31T07:58:41.181Z,1016.28
2018-07-31T07:59:41.444Z,1016.28
2018-07-31T08:00:41.413Z,1016.29
2018-07-31T08:01:41.238Z,1016.27
2018-07-31T08:02:41.262Z,1016.31
2018-07-31T08:03:41.811Z,1016.28
2018-07-31T08:04:41.375Z,1016.3
2018-07-31T08:05:41.695Z,1016.31
2018-07-31T08:06:41.323Z,1016.28
2018-07-31T08:07:41.240Z,1016.31
2018-07-31T08:08:41.305Z,1016.3
2018-07-31T08:09:41.700Z,1016.31
2018-07-31T08:10:41.681Z,1016.27
2018-07-31T08:11:41.315Z,1016.28
2018-07-31T08:12:41.659Z,1016.29
2018-07-31T08:13:41.235Z,1016.26
2018-07-31T08:14:41.236Z,1016.25
2018-07-31T08:15:41.330Z,1016.25
2018-07-31T08:16:41.326Z,1016.21
2018-07-31T08:17:41.471Z,1016.22
2018-07-31T08:18:41.372Z,1016.2
2018-07-31T08:19:41.246Z,1016.23
2018-07-31T08:20:41.262Z,1016.2
2018-07-31T08:21:41.364Z,1016.25
2018-07-31T08:22:41.748Z,1016.23
2018-07-31T08:23:41.545Z,1016.21
2018-07-31T08:24:41.427Z,1016.26
2018-07-31T08:25:41.217Z,1016.29
2018-07-31T08:26:41.295Z,1016.3
2018-07-31T08:27:41.606Z,1016.33
2018-07-31T08:28:41.366Z,1016.32
2018-07-31T08:29:41.313Z,1016.31
2018-07-31T08:30:41.287Z,1016.32
2018-07-31T08:31:41.568Z,1016.33
2018-07-31T08:32:41.266Z,1016.32
2018-07-31T08:33:41.342Z,1016.38
2018-07-31T08:34:41.313Z,1016.37
2018-07-31T08:35:41.373Z,1016.37
2018-07-31T08:36:41.399Z,1016.36
2018-07-31T08:37:41.436Z,1016.39
2018-07-31T08:38:41.409Z,1016.4
2018-07-31T08:39:41.203Z,1016.41
2018-07-31T08:40:41.325Z,1016.4
2018-07-31T08:41:41.330Z,1016.43
2018-07-31T08:42:41.343Z,1016.39
2018-07-31T08:43:41.424Z,1016.39
2018-07-31T08:44:41.520Z,1016.42
2018-07-31T08:45:41.208Z,1016.35
2018-07-31T08:46:41.501Z,1016.36
2018-07-31T08:47:41.360Z,1016.38
2018-07-31T08:48:41.422Z,1016.37
2018-07-31T08:49:41.396Z,1016.43
2018-07-31T08:50:41.318Z,1016.38
2018-07-31T08:51:41.403Z,1016.4
2018-07-31T08:52:41.252Z,1016.41
2018-07-31T08:53:41.386Z,1016.41
2018-07-31T08:54:41.371Z,1016.39
2018-07-31T08:55:41.628Z,1016.41
2018-07-31T08:56:41.253Z,1016.35
2018-07-31T08:57:41.771Z,1016.37
2018-07-31T08:58:41.292Z,1016.38
2018-07-31T08:59:41.500Z,1016.4
2018-07-31T09:00:41.373Z,1016.34
2018-07-31T09:01:41.440Z,1016.36
2018-07-31T09:02:41.597Z,1016.33
2018-07-31T09:03:41.145Z,1016.35
2018-07-31T09:04:41.274Z,1016.33
2018-07-31T09:05:41.500Z,1016.36
2018-07-31T09:06:41.489Z,1016.33
2018-07-31T09:07:41.385Z,1016.34
2018-07-31T09:08:41.719Z,1016.35
2018-07-31T09:09:41.523Z,1016.38
2018-07-31T09:10:41.495Z,1016.37
2018-07-31T09:11:41.556Z,1016.38
2018-07-31T09:12:41.327Z,1016.4
2018-07-31T09:13:41.430Z,1016.38
2018-07-31T09:14:41.441Z,1016.39
2018-07-31T09:15:41.357Z,1016.39
2018-07-31T09:16:41.391Z,1016.42
2018-07-31T09:17:41.713Z,1016.36
2018-07-31T09:18:41.264Z,1016.38
2018-07-31T09:19:41.354Z,1016.38
2018-07-31T09:20:41.501Z,1016.35
2018-07-31T09:21:41.146Z,1016.36
2018-07-31T09:22:41.340Z,1016.38
2018-07-31T09:23:41.335Z,1016.37
2018-07-31T09:24:41.817Z,1016.34
2018-07-31T09:25:41.545Z,1016.34
2018-07-31T09:26:41.686Z,1016.29
2018-07-31T09:27:41.529Z,1016.33
2018-07-31T09:28:41.271Z,1016.37
2018-07-31T09:29:41.384Z,1016.34
2018-07-31T09:30:41.478Z,1016.35
2018-07-31T09:31:41.495Z,1016.36
2018-07-31T09:32:41.361Z,1016.38
2018-07-31T09:33:41.346Z,1016.38
2018-07-31T09:34:41.404Z,1016.36
2018-07-31T09:35:41.283Z,1016.38
2018-07-31T09:36:41.295Z,1016.37
2018-07-31T09:37:41.450Z,1016.39
2018-07-31T09:38:41.435Z,1016.4
2018-07-31T09:39:41.164Z,1016.43
2018-07-31T09:40:41.266Z,1016.4
2018-07-31T09:41:41.343Z,1016.36
2018-07-31T09:42:41.551Z,1016.39
2018-07-31T09:43:41.327Z,1016.39
2018-07-31T09:44:41.516Z,1016.4
2018-07-31T09:45:41.367Z,1016.41
2018-07-31T09:46:41.355Z,1016.41
2018-07-31T09:47:41.448Z,1016.36
2018-07-31T09:48:41.290Z,1016.38
2018-07-31T09:49:41.455Z,1016.41
2018-07-31T09:50:41.481Z,1016.35
2018-07-31T09:51:41.223Z,1016.43
2018-07-31T09:52:41.279Z,1016.46
2018-07-31T09:53:41.233Z,1016.38
2018-07-31T09:54:41.314Z,1016.39
2018-07-31T09:55:41.404Z,1016.36
2018-07-31T09:56:41.452Z,1016.39
2018-07-31T09:57:41.211Z,1016.38
2018-07-31T09:58:41.201Z,1016.34
2018-07-31T09:59:41.185Z,1016.33
2018-07-31T10:00:41.300Z,1016.36
2018-07-31T10:01:41.305Z,1016.32
2018-07-31T10:02:41.248Z,1016.34
2018-07-31T10:03:41.330Z,1016.28
2018-07-31T10:04:41.454Z,1016.3
2018-07-31T10:05:41.318Z,1016.33
2018-07-31T10:06:41.172Z,1016.32
2018-07-31T10:07:41.272Z,1016.27
2018-07-31T10:08:41.228Z,1016.28
2018-07-31T10:09:41.465Z,1016.26
2018-07-31T10:10:41.364Z,1016.28
2018-07-31T10:11:41.426Z,1016.27
2018-07-31T10:12:41.466Z,1016.29
2018-07-31T10:13:41.320Z,1016.27
2018-07-31T10:14:41.318Z,1016.24
2018-07-31T10:15:41.209Z,1016.21
2018-07-31T10:16:41.162Z,1016.23
2018-07-31T10:17:41.435Z,1016.24
2018-07-31T10:18:41.223Z,1016.2
2018-07-31T10:19:41.283Z,1016.21
2018-07-31T10:20:41.217Z,1016.17
2018-07-31T10:21:41.437Z,1016.2
2018-07-31T10:22:41.643Z,1016.18
2018-07-31T10:23:41.301Z,1016.18
2018-07-31T10:24:41.187Z,1016.15
2018-07-31T10:25:41.404Z,1016.12
2018-07-31T10:26:41.158Z,1016.12
2018-07-31T10:27:41.312Z,1016.14
2018-07-31T10:28:41.215Z,1016.11
2018-07-31T10:29:41.238Z,1016.13
2018-07-31T10:30:41.705Z,1016.13
2018-07-31T10:31:41.437Z,1016.11
2018-07-31T10:32:41.352Z,1016.1
2018-07-31T10:33:41.416Z,1016.09
2018-07-31T10:34:41.389Z,1016.08
2018-07-31T10:35:41.283Z,1016.1
2018-07-31T10:36:41.294Z,1016.1
2018-07-31T10:37:41.567Z,1016.06
2018-07-31T10:38:41.343Z,1016.08
2018-07-31T10:39:41.127Z,1016.07
2018-07-31T10:40:41.274Z,1016.09
2018-07-31T10:41:41.318Z,1016.1
2018-07-31T10:42:41.287Z,1016.06
2018-07-31T10:43:41.526Z,1016.06
2018-07-31T10:44:41.241Z,1016.09
2018-07-31T10:45:41.495Z,1016.03
2018-07-31T10:46:41.492Z,1016.03
2018-07-31T10:47:41.224Z,1016.12
2018-07-31T10:48:41.214Z,1016.09
2018-07-31T10:49:41.342Z,1016.06
2018-07-31T10:50:41.547Z,1016.04
2018-07-31T10:51:41.339Z,1016.09
2018-07-31T10:52:41.235Z,1016.07
2018-07-31T10:53:41.190Z,1016.05
2018-07-31T10:54:41.368Z,1016.04
2018-07-31T10:55:41.369Z,1016.03
2018-07-31T10:56:41.523Z,1016.04
2018-07-31T10:57:41.267Z,1016.03
2018-07-31T10:58:41.885Z,1016.04
2018-07-31T10:59:41.590Z,1015.95
2018-07-31T11:00:41.242Z,1016.01
2018-07-31T11:01:41.266Z,1016.02
2018-07-31T11:02:41.322Z,1016.04
2018-07-31T11:03:41.431Z,1016.06
2018-07-31T11:04:41.333Z,1016.08
2018-07-31T11:05:41.331Z,1016.09
2018-07-31T11:06:41.299Z,1016.03
2018-07-31T11:07:41.337Z,1016.02
2018-07-31T11:08:41.167Z,1016.06
2018-07-31T11:09:41.473Z,1016.09
2018-07-31T11:10:41.281Z,1016.03
2018-07-31T11:11:41.166Z,1016.04
2018-07-31T11:12:41.333Z,1016.02
2018-07-31T11:13:41.232Z,1016.02
2018-07-31T11:14:41.454Z,1016.04
2018-07-31T11:15:41.172Z,1015.99
2018-07-31T11:16:41.238Z,1016
2018-07-31T11:17:41.203Z,1015.99
2018-07-31T11:18:41.251Z,1016.01
2018-07-31T11:19:41.429Z,1016.07
2018-07-31T11:20:41.166Z,1016.05
2018-07-31T11:21:41.302Z,1015.98
2018-07-31T11:22:41.412Z,1015.95
2018-07-31T11:23:41.146Z,1015.95
2018-07-31T11:24:41.578Z,1016
2018-07-31T11:25:41.299Z,1015.98
2018-07-31T11:26:41.250Z,1015.95
2018-07-31T11:27:41.442Z,1015.98
2018-07-31T11:28:41.424Z,1015.99
2018-07-31T11:29:41.664Z,1015.97
2018-07-31T11:30:41.333Z,1016.01
2018-07-31T11:31:41.307Z,1016
2018-07-31T11:32:41.231Z,1015.97
2018-07-31T11:33:41.318Z,1015.97
2018-07-31T11:34:41.679Z,1015.95
2018-07-31T11:35:41.272Z,1015.9
2018-07-31T11:36:41.500Z,1015.86
2018-07-31T11:37:41.375Z,1015.91
2018-07-31T11:38:41.365Z,1015.91
2018-07-31T11:39:41.292Z,1015.91
2018-07-31T11:40:41.221Z,1015.93
2018-07-31T11:41:41.208Z,1015.87
2018-07-31T11:42:41.306Z,1015.89
2018-07-31T11:43:41.485Z,1015.86
2018-07-31T11:44:41.355Z,1015.82
2018-07-31T11:45:41.321Z,1015.84
2018-07-31T11:46:41.404Z,1015.83
2018-07-31T11:47:41.381Z,1015.82
2018-07-31T11:48:41.218Z,1015.81
2018-07-31T11:49:41.497Z,1015.83
2018-07-31T11:50:41.403Z,1015.81
2018-07-31T11:51:41.590Z,1015.78
2018-07-31T11:52:41.308Z,1015.79
2018-07-31T11:53:41.414Z,1015.8
2018-07-31T11:54:41.437Z,1015.79
2018-07-31T11:55:41.561Z,1015.77
2018-07-31T11:56:41.454Z,1015.77
2018-07-31T11:57:41.324Z,1015.77
2018-07-31T11:58:41.139Z,1015.71
2018-07-31T11:59:41.327Z,1015.71
2018-07-31T12:00:41.418Z,1015.72
2018-07-31T12:01:41.351Z,1015.73
2018-07-31T12:02:41.271Z,1015.73
2018-07-31T12:03:41.312Z,1015.74
2018-07-31T12:04:41.237Z,1015.71
2018-07-31T12:05:41.519Z,1015.71
2018-07-31T12:06:41.419Z,1015.72
2018-07-31T12:07:41.092Z,1015.7
2018-07-31T12:08:41.479Z,1015.7